CJW3 weather

Loon Lake Airport
Loon Lake, Saskatchewan, Canada

Public forecast

Using degrees Celsius for public forecast. Weather courtesy of forecast.io.

METAR (pilot weather report)

Closest report is Meadow Lake Airport, 22.5 nm (41.7 km) ENE. Retrieved 2019/04/23 15:00 UTC (49 minutes ago):

CYLJ 231500Z 29017G23KT 15SM SCT350 12/00 A2967 RMK CS3 SLP056 DENSITY ALT 2000FT

TAF (pilot weather forecast)

Closest forecast is CFB Cold Lake, 46.4 nm (85.9 km) WNW. Retrieved 2019/04/23 15:35 UTC (14 minutes ago):

TAF CYOD 231430Z 2315/2412 28015G25KT P6SM FEW050 FEW110 FEW250 BECMG 2404/2406 29012KT RMK NXT FCST BY 231800Z